DAUAGMAT

Guest
Details From DAUA - TOUAT CHEIKH SIDI MOHAMED BELKEBIR
To GMAT - PLAGE BLANCHE
Flight Number -
Tags generated
Created
Modified
Stats Distance 606 nm / 1,122 km
Max Altitude 34,000 ft / 10,363 m
Waypoints 6
Social Downloads 3
Likes 0
Share VATSIM

Download

Looking for another format? Having issues loading an existing format? Contact us
Advertisement - Login to hide

Notes

Basic altitude profile: - Ascent Rate: 2500ft/min - Ascent Speed: 250kts - Cruise Altitude: 35000ft - Cruise Speed: 420kts - Descent Rate: 1500ft/min - Descent Speed: 250kts Options: - Use NATs: yes - Use PACOTS: yes - Use low airways: yes - Use high airways: yes

Route

DAUA TABAL 2900N0500W DIVUX KUVEL GMAT

ID Type Via Altitude Latitude Longitude Leg Dist Tot Dist Heading (true) Name
O DAUA APT - 0 ft / 0 m 27.83764˚ -0.18639˚ - 0 nm - TOUAT CHEIKH SIDI MOHAMED BELKEBIR
TABAL FIX - 34,000 ft / 10,363 m 29.25000˚ -3.10000˚ 175 nm 175 nm 300° / 298° -
2900N0500W LATLON - 34,000 ft / 10,363 m 29.00000˚ -5.00000˚ 100 nm 276 nm 262° / 261° -
DIVUX FIX - 26,700 ft / 8,138 m 29.00000˚ -8.79972˚ 199 nm 475 nm 271° / 269° -
KUVEL FIX - 22,500 ft / 6,858 m 29.00000˚ -9.26083˚ 24 nm 500 nm 270° / 270° -
O GMAT APT - 0 ft / 0 m 28.44821˚ -11.16135˚ 105 nm 605 nm 252° / 251° PLAGE BLANCHE

Altitude Profile

Advertisement - Login to hide

Weather


0- 5 10 15 20 25 30 35+ Temperature / ° C

Clouds and Precipitation
Forecast for 2017-12-14 12:00 UTC. Updated 2 hours ago

Ground ~20,000 ft ~40,000 ft Winds

DAUA

Details ICAO DAUA (AZR)
Name TOUAT CHEIKH SIDI MOHAMED BELKEBIR
Region Algeria
Timezone Africa/Algiers (UTC+1.0)
Stats Elevation 919 ft / 280 m (AMSL)
Location 27.837639° -0.186389°
Runways 1
Magnetic Variation 0.087° W

METAR

DAUA 141300Z 06016KT 9999 FEW046 SCT133 23/M01 Q1018

Decode

TAF

TAF DAUA 141100Z 1412/1512 06016KT 9999 FEW043 SCT100 PROB30 TEMPO 1412/1418 06018G28KT 3000 DRSA PROB40 TEMPO 1417/1502 FEW040CB PROB40 TEMPO 1419/1501 08015G30KT 5000 -TSRA FEW036CB

Decode

Departure Runways

ID Width Length Bearing (true) Bearing (mag) Surface Threshold Offset Overrun Length
04 148 ft / 45 m 9,857 ft / 3,005 m 39.53° 39.62° Asphalt 0 ft / 0 m 0 ft / 0 m
22 148 ft / 45 m 9,857 ft / 3,005 m 219.54° 219.63° Asphalt 0 ft / 0 m 0 ft / 0 m

GMAT

Details ICAO GMAT (TTA)
Name PLAGE BLANCHE
Region Morocco
Timezone Africa/Casablanca (UTC+0.0)
Stats Elevation 653 ft / 199 m (AMSL)
Location 28.448206° -11.161350°
Runways 1
Magnetic Variation 3.155° W

METAR

GMAT 141300Z 36006KT CAVOK 19/15 Q1023 NOSIG

Decode

TAF

Not found

Destination Runways

ID Width Length Bearing (true) Bearing (mag) Surface Threshold Offset Overrun Length
03 98 ft / 30 m 6,585 ft / 2,007 m 27.69° 30.85° Asphalt 0 ft / 0 m 0 ft / 0 m
21 98 ft / 30 m 6,585 ft / 2,007 m 207.70° 210.86° Asphalt 0 ft / 0 m 0 ft / 0 m

Popular Alternatives